Terminal Aerodrome Forecast
Issued by NWS

Home | Current Version | Previous Version | Text Only | Print | Product List | Glossary On
Versions: 1 2 3 4 5 6 7 8 9 10 11 12 13 14 15 16 17 18 19 20 21 22 23 24 25 26 27
000
FTUS42 KJAX 241738
TAFVQQ
TAF
KVQQ 241738Z 2418/2518 17007KT P6SM SCT030
      TEMPO 2418/2420 BKN030
     FM242100 13009KT P6SM SCT045
     FM250100 16005KT P6SM VCSH SCT040 BKN080
     FM250900 17003KT 3SM BR SCT003 SCT050
     FM251400 20006KT P6SM SCT030=

USA.gov is the U.S. government's official web portal to all federal, state and local government web resources and services.